sensor_id;sensor_type;location;lat;lon;timestamp;temperature;humidity
13808;DHT22;40769;51.512;5.494;2022-11-15T00:00:07;12.00;99.90
13808;DHT22;40769;51.512;5.494;2022-11-15T00:02:35;12.00;99.90
13808;DHT22;40769;51.512;5.494;2022-11-15T00:05:00;12.00;99.90
13808;DHT22;40769;51.512;5.494;2022-11-15T00:07:26;12.10;99.90
13808;DHT22;40769;51.512;5.494;2022-11-15T00:09:52;12.10;99.90
13808;DHT22;40769;51.512;5.494;2022-11-15T00:12:17;12.20;99.90
13808;DHT22;40769;51.512;5.494;2022-11-15T00:14:43;12.20;99.90
13808;DHT22;40769;51.512;5.494;2022-11-15T00:17:08;12.40;99.90
13808;DHT22;40769;51.512;5.494;2022-11-15T00:19:34;12.40;99.90
13808;DHT22;40769;51.512;5.494;2022-11-15T00:22:00;12.40;99.90
13808;DHT22;40769;51.512;5.494;2022-11-15T00:24:26;12.50;99.90
13808;DHT22;40769;51.512;5.494;2022-11-15T00:26:51;12.50;99.90
13808;DHT22;40769;51.512;5.494;2022-11-15T00:29:17;12.50;99.90
13808;DHT22;40769;51.512;5.494;2022-11-15T00:31:42;12.70;99.90
13808;DHT22;40769;51.512;5.494;2022-11-15T00:34:09;12.60;99.90
13808;DHT22;40769;51.512;5.494;2022-11-15T00:36:35;12.60;99.90
13808;DHT22;40769;51.512;5.494;2022-11-15T00:39:03;12.70;99.90
13808;DHT22;40769;51.512;5.494;2022-11-15T00:41:29;12.70;99.90
13808;DHT22;40769;51.512;5.494;2022-11-15T00:43:55;12.70;99.90
13808;DHT22;40769;51.512;5.494;2022-11-15T00:46:21;12.80;99.90
13808;DHT22;40769;51.512;5.494;2022-11-15T00:48:46;12.80;99.90
13808;DHT22;40769;51.512;5.494;2022-11-15T00:51:12;13.10;99.90
13808;DHT22;40769;51.512;5.494;2022-11-15T00:53:37;12.90;99.90
13808;DHT22;40769;51.512;5.494;2022-11-15T00:56:03;12.90;99.90
13808;DHT22;40769;51.512;5.494;2022-11-15T00:58:29;12.90;99.90
13808;DHT22;40769;51.512;5.494;2022-11-15T01:00:55;12.90;99.90
13808;DHT22;40769;51.512;5.494;2022-11-15T01:03:20;13.00;99.90
13808;DHT22;40769;51.512;5.494;2022-11-15T01:05:46;13.00;99.90
13808;DHT22;40769;51.512;5.494;2022-11-15T01:08:13;12.90;99.90
13808;DHT22;40769;51.512;5.494;2022-11-15T01:10:39;13.10;99.90
13808;DHT22;40769;51.512;5.494;2022-11-15T01:13:05;13.10;99.90
13808;DHT22;40769;51.512;5.494;2022-11-15T01:15:30;13.10;99.90
13808;DHT22;40769;51.512;5.494;2022-11-15T01:17:56;13.10;99.90
13808;DHT22;40769;51.512;5.494;2022-11-15T01:20:22;13.20;99.90
13808;DHT22;40769;51.512;5.494;2022-11-15T01:22:47;13.20;99.90
13808;DHT22;40769;51.512;5.494;2022-11-15T01:25:13;13.20;99.90
13808;DHT22;40769;51.512;5.494;2022-11-15T01:27:39;13.20;99.90
13808;DHT22;40769;51.512;5.494;2022-11-15T01:30:05;13.20;99.90
13808;DHT22;40769;51.512;5.494;2022-11-15T01:32:31;13.20;99.90
13808;DHT22;40769;51.512;5.494;2022-11-15T01:34:57;13.40;99.90
13808;DHT22;40769;51.512;5.494;2022-11-15T01:37:22;13.30;99.90
13808;DHT22;40769;51.512;5.494;2022-11-15T01:39:48;13.30;99.90
13808;DHT22;40769;51.512;5.494;2022-11-15T01:42:14;13.40;99.90
13808;DHT22;40769;51.512;5.494;2022-11-15T01:44:50;13.40;99.90
13808;DHT22;40769;51.512;5.494;2022-11-15T01:47:33;13.40;99.90
13808;DHT22;40769;51.512;5.494;2022-11-15T01:50:06;13.50;99.90
13808;DHT22;40769;51.512;5.494;2022-11-15T01:52:33;13.50;99.90
13808;DHT22;40769;51.512;5.494;2022-11-15T01:55:09;13.50;99.90
13808;DHT22;40769;51.512;5.494;2022-11-15T01:57:37;13.50;99.90
13808;DHT22;40769;51.512;5.494;2022-11-15T02:00:06;13.50;99.90
13808;DHT22;40769;51.512;5.494;2022-11-15T02:02:33;13.60;99.90
13808;DHT22;40769;51.512;5.494;2022-11-15T02:04:59;13.60;99.90
13808;DHT22;40769;51.512;5.494;2022-11-15T02:07:25;13.60;99.90
13808;DHT22;40769;51.512;5.494;2022-11-15T02:09:51;13.60;99.90
13808;DHT22;40769;51.512;5.494;2022-11-15T02:12:19;13.90;99.90
13808;DHT22;40769;51.512;5.494;2022-11-15T02:14:50;13.70;99.90
13808;DHT22;40769;51.512;5.494;2022-11-15T02:20:20;13.70;99.90
13808;DHT22;40769;51.512;5.494;2022-11-15T02:23:10;13.70;99.90
13808;DHT22;40769;51.512;5.494;2022-11-15T02:26:06;13.80;99.90
13808;DHT22;40769;51.512;5.494;2022-11-15T02:28:48;13.90;99.90
13808;DHT22;40769;51.512;5.494;2022-11-15T02:37:17;14.00;99.90
13808;DHT22;40769;51.512;5.494;2022-11-15T02:42:36;14.10;99.90
13808;DHT22;40769;51.512;5.494;2022-11-15T02:45:26;14.20;99.90
13808;DHT22;40769;51.512;5.494;2022-11-15T02:47:54;14.30;99.90
13808;DHT22;40769;51.512;5.494;2022-11-15T02:50:25;14.30;99.90
13808;DHT22;40769;51.512;5.494;2022-11-15T02:52:52;14.20;99.90
13808;DHT22;40769;51.512;5.494;2022-11-15T03:06:15;14.60;99.90
13808;DHT22;40769;51.512;5.494;2022-11-15T03:09:03;14.70;99.90
13808;DHT22;40769;51.512;5.494;2022-11-15T03:11:33;14.60;99.90
13808;DHT22;40769;51.512;5.494;2022-11-15T03:14:25;14.70;99.90
13808;DHT22;40769;51.512;5.494;2022-11-15T03:19:50;14.70;99.90
13808;DHT22;40769;51.512;5.494;2022-11-15T03:22:19;14.80;99.90
13808;DHT22;40769;51.512;5.494;2022-11-15T03:24:47;14.80;99.90
13808;DHT22;40769;51.512;5.494;2022-11-15T03:27:17;14.80;99.90
13808;DHT22;40769;51.512;5.494;2022-11-15T03:29:54;14.90;99.90
13808;DHT22;40769;51.512;5.494;2022-11-15T03:32:24;14.90;99.90
13808;DHT22;40769;51.512;5.494;2022-11-15T03:35:16;14.90;99.90
13808;DHT22;40769;51.512;5.494;2022-11-15T03:40:33;15.00;99.90
13808;DHT22;40769;51.512;5.494;2022-11-15T03:45:45;15.10;99.90
13808;DHT22;40769;51.512;5.494;2022-11-15T03:48:20;15.10;99.90
13808;DHT22;40769;51.512;5.494;2022-11-15T03:50:48;15.10;99.90
13808;DHT22;40769;51.512;5.494;2022-11-15T03:53:14;15.20;99.90
13808;DHT22;40769;51.512;5.494;2022-11-15T03:55:40;15.20;99.90
13808;DHT22;40769;51.512;5.494;2022-11-15T03:58:06;15.20;99.90
13808;DHT22;40769;51.512;5.494;2022-11-15T04:00:31;15.20;99.90
13808;DHT22;40769;51.512;5.494;2022-11-15T04:02:57;15.30;99.90
13808;DHT22;40769;51.512;5.494;2022-11-15T04:05:23;15.20;99.90
13808;DHT22;40769;51.512;5.494;2022-11-15T04:07:49;15.20;99.90
13808;DHT22;40769;51.512;5.494;2022-11-15T04:10:15;15.10;99.90
13808;DHT22;40769;51.512;5.494;2022-11-15T04:12:43;15.10;99.90
13808;DHT22;40769;51.512;5.494;2022-11-15T04:15:14;15.10;99.90
13808;DHT22;40769;51.512;5.494;2022-11-15T04:17:53;15.10;99.90
13808;DHT22;40769;51.512;5.494;2022-11-15T04:20:21;15.20;99.90
13808;DHT22;40769;51.512;5.494;2022-11-15T04:23:12;15.20;99.90
13808;DHT22;40769;51.512;5.494;2022-11-15T04:26:00;15.20;99.90
13808;DHT22;40769;51.512;5.494;2022-11-15T04:28:26;15.20;99.90
13808;DHT22;40769;51.512;5.494;2022-11-15T04:30:52;15.20;99.90
13808;DHT22;40769;51.512;5.494;2022-11-15T04:33:17;15.10;99.90
13808;DHT22;40769;51.512;5.494;2022-11-15T04:35:43;15.10;99.90
13808;DHT22;40769;51.512;5.494;2022-11-15T04:38:29;15.00;99.90
13808;DHT22;40769;51.512;5.494;2022-11-15T04:40:54;15.00;99.90
13808;DHT22;40769;51.512;5.494;2022-11-15T04:43:20;15.00;99.90
13808;DHT22;40769;51.512;5.494;2022-11-15T04:45:45;15.00;99.90
13808;DHT22;40769;51.512;5.494;2022-11-15T04:48:11;15.10;99.90
13808;DHT22;40769;51.512;5.494;2022-11-15T04:50:37;15.10;99.90
13808;DHT22;40769;51.512;5.494;2022-11-15T04:53:02;15.10;99.90
13808;DHT22;40769;51.512;5.494;2022-11-15T04:55:28;15.20;99.90
13808;DHT22;40769;51.512;5.494;2022-11-15T04:58:00;15.20;99.90
13808;DHT22;40769;51.512;5.494;2022-11-15T05:00:29;15.10;99.90
13808;DHT22;40769;51.512;5.494;2022-11-15T05:02:55;15.00;99.90
13808;DHT22;40769;51.512;5.494;2022-11-15T05:05:40;15.00;99.90
13808;DHT22;40769;51.512;5.494;2022-11-15T05:08:06;14.90;99.90
13808;DHT22;40769;51.512;5.494;2022-11-15T05:10:31;14.90;99.90
13808;DHT22;40769;51.512;5.494;2022-11-15T05:12:57;14.90;99.90
13808;DHT22;40769;51.512;5.494;2022-11-15T05:15:22;14.90;99.90
13808;DHT22;40769;51.512;5.494;2022-11-15T05:17:48;14.90;99.90
13808;DHT22;40769;51.512;5.494;2022-11-15T05:20:13;14.90;99.90
13808;DHT22;40769;51.512;5.494;2022-11-15T05:22:39;15.00;99.90
13808;DHT22;40769;51.512;5.494;2022-11-15T05:25:05;15.10;99.90
13808;DHT22;40769;51.512;5.494;2022-11-15T05:27:33;15.10;99.90
13808;DHT22;40769;51.512;5.494;2022-11-15T05:29:58;15.10;99.90
13808;DHT22;40769;51.512;5.494;2022-11-15T05:32:24;15.00;99.90
13808;DHT22;40769;51.512;5.494;2022-11-15T05:34:50;14.90;99.90
13808;DHT22;40769;51.512;5.494;2022-11-15T05:37:17;14.90;99.90
13808;DHT22;40769;51.512;5.494;2022-11-15T05:39:43;14.90;99.90
13808;DHT22;40769;51.512;5.494;2022-11-15T05:42:13;15.00;99.90
13808;DHT22;40769;51.512;5.494;2022-11-15T05:44:43;14.90;99.90
13808;DHT22;40769;51.512;5.494;2022-11-15T05:47:11;14.90;99.90
13808;DHT22;40769;51.512;5.494;2022-11-15T05:49:39;14.90;99.90
13808;DHT22;40769;51.512;5.494;2022-11-15T05:52:07;15.00;99.90
13808;DHT22;40769;51.512;5.494;2022-11-15T05:54:37;15.00;99.90
13808;DHT22;40769;51.512;5.494;2022-11-15T05:57:04;15.10;99.90
13808;DHT22;40769;51.512;5.494;2022-11-15T05:59:30;15.00;99.90
13808;DHT22;40769;51.512;5.494;2022-11-15T06:01:57;15.00;99.90
13808;DHT22;40769;51.512;5.494;2022-11-15T06:04:22;14.90;99.90
13808;DHT22;40769;51.512;5.494;2022-11-15T06:06:48;14.80;99.90
13808;DHT22;40769;51.512;5.494;2022-11-15T06:09:13;15.40;99.90
13808;DHT22;40769;51.512;5.494;2022-11-15T06:11:39;14.80;99.90
13808;DHT22;40769;51.512;5.494;2022-11-15T06:14:05;14.80;99.90
13808;DHT22;40769;51.512;5.494;2022-11-15T06:16:30;15.00;99.90
13808;DHT22;40769;51.512;5.494;2022-11-15T06:18:56;15.30;99.90
13808;DHT22;40769;51.512;5.494;2022-11-15T06:21:22;15.10;99.90
13808;DHT22;40769;51.512;5.494;2022-11-15T06:23:48;15.10;99.90
13808;DHT22;40769;51.512;5.494;2022-11-15T06:26:13;15.10;99.90
13808;DHT22;40769;51.512;5.494;2022-11-15T06:28:42;15.10;99.90
13808;DHT22;40769;51.512;5.494;2022-11-15T06:31:11;15.10;99.90
13808;DHT22;40769;51.512;5.494;2022-11-15T06:33:38;15.00;99.90
13808;DHT22;40769;51.512;5.494;2022-11-15T06:36:09;14.90;99.90
13808;DHT22;40769;51.512;5.494;2022-11-15T06:38:35;14.90;99.90
13808;DHT22;40769;51.512;5.494;2022-11-15T06:41:06;14.90;99.90
13808;DHT22;40769;51.512;5.494;2022-11-15T06:43:32;14.90;99.90
13808;DHT22;40769;51.512;5.494;2022-11-15T06:45:59;14.90;99.90
13808;DHT22;40769;51.512;5.494;2022-11-15T06:48:25;15.00;99.90
13808;DHT22;40769;51.512;5.494;2022-11-15T06:50:55;14.90;99.90
13808;DHT22;40769;51.512;5.494;2022-11-15T06:53:21;14.90;99.90
13808;DHT22;40769;51.512;5.494;2022-11-15T06:55:47;14.90;99.90
13808;DHT22;40769;51.512;5.494;2022-11-15T06:58:13;15.00;99.90
13808;DHT22;40769;51.512;5.494;2022-11-15T07:00:38;14.80;99.90
13808;DHT22;40769;51.512;5.494;2022-11-15T07:03:04;14.70;99.90
13808;DHT22;40769;51.512;5.494;2022-11-15T07:05:33;14.70;99.90
13808;DHT22;40769;51.512;5.494;2022-11-15T07:07:59;14.70;99.90
13808;DHT22;40769;51.512;5.494;2022-11-15T07:10:25;14.60;99.90
13808;DHT22;40769;51.512;5.494;2022-11-15T07:12:51;14.70;99.90
13808;DHT22;40769;51.512;5.494;2022-11-15T07:15:18;15.10;99.90
13808;DHT22;40769;51.512;5.494;2022-11-15T07:17:44;14.70;99.90
13808;DHT22;40769;51.512;5.494;2022-11-15T07:20:11;14.60;99.90
13808;DHT22;40769;51.512;5.494;2022-11-15T07:22:39;14.60;99.90
13808;DHT22;40769;51.512;5.494;2022-11-15T07:25:05;14.60;99.90
13808;DHT22;40769;51.512;5.494;2022-11-15T07:27:30;14.60;99.90
13808;DHT22;40769;51.512;5.494;2022-11-15T07:29:56;14.70;99.90
13808;DHT22;40769;51.512;5.494;2022-11-15T07:32:21;14.90;99.90
13808;DHT22;40769;51.512;5.494;2022-11-15T07:34:47;14.80;99.90
13808;DHT22;40769;51.512;5.494;2022-11-15T07:37:13;14.80;99.90
13808;DHT22;40769;51.512;5.494;2022-11-15T07:39:38;14.80;99.90
13808;DHT22;40769;51.512;5.494;2022-11-15T07:42:04;14.90;99.90
13808;DHT22;40769;51.512;5.494;2022-11-15T07:44:48;14.90;99.90
13808;DHT22;40769;51.512;5.494;2022-11-15T07:47:14;14.90;99.90
13808;DHT22;40769;51.512;5.494;2022-11-15T07:49:39;14.90;99.90
13808;DHT22;40769;51.512;5.494;2022-11-15T07:52:05;14.90;99.90
13808;DHT22;40769;51.512;5.494;2022-11-15T07:54:30;15.10;99.90
13808;DHT22;40769;51.512;5.494;2022-11-15T07:56:56;14.90;99.90
13808;DHT22;40769;51.512;5.494;2022-11-15T07:59:22;14.80;99.90
13808;DHT22;40769;51.512;5.494;2022-11-15T08:01:47;14.80;99.90
13808;DHT22;40769;51.512;5.494;2022-11-15T08:04:13;14.80;99.90
13808;DHT22;40769;51.512;5.494;2022-11-15T08:06:39;14.80;99.90
13808;DHT22;40769;51.512;5.494;2022-11-15T08:09:04;15.00;99.90
13808;DHT22;40769;51.512;5.494;2022-11-15T08:11:32;14.70;99.90
13808;DHT22;40769;51.512;5.494;2022-11-15T08:13:58;14.80;99.90
13808;DHT22;40769;51.512;5.494;2022-11-15T08:16:24;14.80;99.90
13808;DHT22;40769;51.512;5.494;2022-11-15T08:18:49;14.90;99.90
13808;DHT22;40769;51.512;5.494;2022-11-15T08:21:18;14.90;99.90
13808;DHT22;40769;51.512;5.494;2022-11-15T08:23:44;14.90;99.90
13808;DHT22;40769;51.512;5.494;2022-11-15T08:26:10;14.90;99.90
13808;DHT22;40769;51.512;5.494;2022-11-15T08:28:36;14.90;99.90
13808;DHT22;40769;51.512;5.494;2022-11-15T08:31:02;14.90;99.90
13808;DHT22;40769;51.512;5.494;2022-11-15T08:33:28;14.90;99.90
13808;DHT22;40769;51.512;5.494;2022-11-15T08:35:58;14.90;99.90
13808;DHT22;40769;51.512;5.494;2022-11-15T08:38:23;15.00;99.90
13808;DHT22;40769;51.512;5.494;2022-11-15T08:40:51;15.00;99.90
13808;DHT22;40769;51.512;5.494;2022-11-15T08:43:16;15.00;99.90
13808;DHT22;40769;51.512;5.494;2022-11-15T08:45:42;15.00;99.90
13808;DHT22;40769;51.512;5.494;2022-11-15T08:48:08;15.00;99.90
13808;DHT22;40769;51.512;5.494;2022-11-15T08:50:34;15.10;99.90
13808;DHT22;40769;51.512;5.494;2022-11-15T08:53:07;15.10;99.90
13808;DHT22;40769;51.512;5.494;2022-11-15T08:55:36;15.20;99.90
13808;DHT22;40769;51.512;5.494;2022-11-15T08:58:02;15.30;99.90
13808;DHT22;40769;51.512;5.494;2022-11-15T09:00:27;15.30;99.90
13808;DHT22;40769;51.512;5.494;2022-11-15T09:02:53;15.40;99.90
13808;DHT22;40769;51.512;5.494;2022-11-15T09:05:19;15.40;99.90
13808;DHT22;40769;51.512;5.494;2022-11-15T09:07:44;15.50;99.90
13808;DHT22;40769;51.512;5.494;2022-11-15T09:10:10;15.60;99.90
13808;DHT22;40769;51.512;5.494;2022-11-15T09:12:36;15.70;99.90
13808;DHT22;40769;51.512;5.494;2022-11-15T09:15:01;15.70;99.90
13808;DHT22;40769;51.512;5.494;2022-11-15T09:17:27;15.80;99.90
13808;DHT22;40769;51.512;5.494;2022-11-15T09:19:53;15.90;99.90
13808;DHT22;40769;51.512;5.494;2022-11-15T09:22:19;15.80;99.90
13808;DHT22;40769;51.512;5.494;2022-11-15T09:24:44;15.70;99.90
13808;DHT22;40769;51.512;5.494;2022-11-15T09:27:10;16.60;99.90
13808;DHT22;40769;51.512;5.494;2022-11-15T09:29:35;15.50;99.90
13808;DHT22;40769;51.512;5.494;2022-11-15T09:32:01;15.60;99.90
13808;DHT22;40769;51.512;5.494;2022-11-15T09:34:27;15.60;99.90
13808;DHT22;40769;51.512;5.494;2022-11-15T09:36:53;15.70;99.90
13808;DHT22;40769;51.512;5.494;2022-11-15T09:39:18;15.70;99.90
13808;DHT22;40769;51.512;5.494;2022-11-15T09:50:15;15.80;99.90
13808;DHT22;40769;51.512;5.494;2022-11-15T09:52:44;15.90;99.90
13808;DHT22;40769;51.512;5.494;2022-11-15T09:55:11;15.90;99.90
13808;DHT22;40769;51.512;5.494;2022-11-15T09:58:10;15.90;99.90
13808;DHT22;40769;51.512;5.494;2022-11-15T10:00:44;16.00;99.90
13808;DHT22;40769;51.512;5.494;2022-11-15T10:03:16;16.10;99.90
13808;DHT22;40769;51.512;5.494;2022-11-15T10:05:50;16.10;99.90
13808;DHT22;40769;51.512;5.494;2022-11-15T10:11:19;16.10;99.90
13808;DHT22;40769;51.512;5.494;2022-11-15T10:13:47;16.20;99.90
13808;DHT22;40769;51.512;5.494;2022-11-15T10:22:21;16.20;99.90
13808;DHT22;40769;51.512;5.494;2022-11-15T10:24:50;16.20;99.90
13808;DHT22;40769;51.512;5.494;2022-11-15T10:27:19;16.20;99.90
13808;DHT22;40769;51.512;5.494;2022-11-15T10:29:49;16.10;99.90
13808;DHT22;40769;51.512;5.494;2022-11-15T10:32:20;16.10;99.90
13808;DHT22;40769;51.512;5.494;2022-11-15T10:34:47;16.00;99.90
13808;DHT22;40769;51.512;5.494;2022-11-15T10:37:13;16.00;99.90
13808;DHT22;40769;51.512;5.494;2022-11-15T10:39:39;16.10;99.90
13808;DHT22;40769;51.512;5.494;2022-11-15T10:42:26;15.90;99.90
13808;DHT22;40769;51.512;5.494;2022-11-15T10:44:53;15.80;99.90
13808;DHT22;40769;51.512;5.494;2022-11-15T10:47:30;15.80;99.90
13808;DHT22;40769;51.512;5.494;2022-11-15T10:50:24;15.80;99.90
13808;DHT22;40769;51.512;5.494;2022-11-15T10:52:51;15.80;99.90
13808;DHT22;40769;51.512;5.494;2022-11-15T10:58:35;15.90;99.90
13808;DHT22;40769;51.512;5.494;2022-11-15T11:00:36;15.80;99.90
13808;DHT22;40769;51.512;5.494;2022-11-15T11:03:08;15.90;99.90
13808;DHT22;40769;51.512;5.494;2022-11-15T11:05:45;16.00;99.90
13808;DHT22;40769;51.512;5.494;2022-11-15T11:10:37;16.00;99.90
13808;DHT22;40769;51.512;5.494;2022-11-15T11:15:49;16.30;99.90
13808;DHT22;40769;51.512;5.494;2022-11-15T11:21:19;16.20;99.90
13808;DHT22;40769;51.512;5.494;2022-11-15T11:43:06;16.20;99.90
13808;DHT22;40769;51.512;5.494;2022-11-15T11:53:46;16.40;99.90
13808;DHT22;40769;51.512;5.494;2022-11-15T11:56:29;16.50;99.90
13808;DHT22;40769;51.512;5.494;2022-11-15T11:59:18;16.50;99.90
13808;DHT22;40769;51.512;5.494;2022-11-15T12:01:45;16.30;99.90
13808;DHT22;40769;51.512;5.494;2022-11-15T12:04:38;16.60;99.90
13808;DHT22;40769;51.512;5.494;2022-11-15T12:07:12;16.70;99.90
13808;DHT22;40769;51.512;5.494;2022-11-15T12:12:53;16.80;99.90
13808;DHT22;40769;51.512;5.494;2022-11-15T12:15:31;16.90;99.90
13808;DHT22;40769;51.512;5.494;2022-11-15T12:18:00;16.90;99.90
13808;DHT22;40769;51.512;5.494;2022-11-15T12:20:36;16.90;99.90
13808;DHT22;40769;51.512;5.494;2022-11-15T12:23:26;16.90;99.90
13808;DHT22;40769;51.512;5.494;2022-11-15T12:31:14;16.90;99.90
13808;DHT22;40769;51.512;5.494;2022-11-15T12:33:44;17.00;99.90
13808;DHT22;40769;51.512;5.494;2022-11-15T12:36:29;17.00;99.90
13808;DHT22;40769;51.512;5.494;2022-11-15T12:41:31;17.00;99.90
13808;DHT22;40769;51.512;5.494;2022-11-15T12:43:58;17.00;99.90
13808;DHT22;40769;51.512;5.494;2022-11-15T12:49:09;16.80;99.90
13808;DHT22;40769;51.512;5.494;2022-11-15T12:54:48;16.80;99.90
13808;DHT22;40769;51.512;5.494;2022-11-15T13:00:36;16.70;99.90
13808;DHT22;40769;51.512;5.494;2022-11-15T13:03:16;16.80;99.90
13808;DHT22;40769;51.512;5.494;2022-11-15T13:08:08;16.80;99.90
13808;DHT22;40769;51.512;5.494;2022-11-15T13:10:34;16.80;99.90
13808;DHT22;40769;51.512;5.494;2022-11-15T13:13:01;16.80;99.90
13808;DHT22;40769;51.512;5.494;2022-11-15T13:15:33;16.80;99.90
13808;DHT22;40769;51.512;5.494;2022-11-15T13:18:36;16.90;99.90
13808;DHT22;40769;51.512;5.494;2022-11-15T13:21:05;16.80;99.90
13808;DHT22;40769;51.512;5.494;2022-11-15T13:24:03;16.80;99.90
13808;DHT22;40769;51.512;5.494;2022-11-15T13:26:31;16.80;99.90
13808;DHT22;40769;51.512;5.494;2022-11-15T13:28:57;16.80;99.90
13808;DHT22;40769;51.512;5.494;2022-11-15T13:31:27;16.70;99.90
13808;DHT22;40769;51.512;5.494;2022-11-15T13:33:56;16.70;99.90
13808;DHT22;40769;51.512;5.494;2022-11-15T13:36:27;16.70;99.90
13808;DHT22;40769;51.512;5.494;2022-11-15T13:39:03;16.60;99.90
13808;DHT22;40769;51.512;5.494;2022-11-15T13:41:34;16.70;99.90
13808;DHT22;40769;51.512;5.494;2022-11-15T13:44:02;16.70;99.90
13808;DHT22;40769;51.512;5.494;2022-11-15T13:46:33;16.70;99.90
13808;DHT22;40769;51.512;5.494;2022-11-15T13:49:08;16.70;99.90
13808;DHT22;40769;51.512;5.494;2022-11-15T13:51:48;16.80;99.90
13808;DHT22;40769;51.512;5.494;2022-11-15T13:54:29;16.90;99.90
13808;DHT22;40769;51.512;5.494;2022-11-15T13:57:20;16.90;99.90
13808;DHT22;40769;51.512;5.494;2022-11-15T13:59:52;16.90;99.90
13808;DHT22;40769;51.512;5.494;2022-11-15T14:02:27;17.00;99.90
13808;DHT22;40769;51.512;5.494;2022-11-15T14:07:23;16.90;99.90
13808;DHT22;40769;51.512;5.494;2022-11-15T14:09:49;16.90;99.90
13808;DHT22;40769;51.512;5.494;2022-11-15T14:12:33;17.10;99.90
13808;DHT22;40769;51.512;5.494;2022-11-15T14:15:02;16.70;99.90
13808;DHT22;40769;51.512;5.494;2022-11-15T14:17:43;16.60;99.90
13808;DHT22;40769;51.512;5.494;2022-11-15T14:20:30;16.60;99.90
13808;DHT22;40769;51.512;5.494;2022-11-15T14:22:59;16.50;99.90
13808;DHT22;40769;51.512;5.494;2022-11-15T14:25:28;16.50;99.90
13808;DHT22;40769;51.512;5.494;2022-11-15T14:30:42;16.50;99.90
13808;DHT22;40769;51.512;5.494;2022-11-15T14:33:30;16.50;99.90
13808;DHT22;40769;51.512;5.494;2022-11-15T14:36:02;16.50;99.90
13808;DHT22;40769;51.512;5.494;2022-11-15T14:38:28;16.50;99.90
13808;DHT22;40769;51.512;5.494;2022-11-15T14:40:54;16.50;99.90
13808;DHT22;40769;51.512;5.494;2022-11-15T14:43:21;16.50;99.90
13808;DHT22;40769;51.512;5.494;2022-11-15T14:45:47;16.50;99.90
13808;DHT22;40769;51.512;5.494;2022-11-15T14:48:13;16.40;99.90
13808;DHT22;40769;51.512;5.494;2022-11-15T14:50:38;16.50;99.90
13808;DHT22;40769;51.512;5.494;2022-11-15T14:53:06;16.50;99.90
13808;DHT22;40769;51.512;5.494;2022-11-15T14:55:34;16.40;99.90
13808;DHT22;40769;51.512;5.494;2022-11-15T14:58:05;16.60;99.90
13808;DHT22;40769;51.512;5.494;2022-11-15T15:00:37;16.40;99.90
13808;DHT22;40769;51.512;5.494;2022-11-15T15:03:04;16.40;99.90
13808;DHT22;40769;51.512;5.494;2022-11-15T15:07:55;16.30;99.90
13808;DHT22;40769;51.512;5.494;2022-11-15T15:10:21;16.30;99.90
13808;DHT22;40769;51.512;5.494;2022-11-15T15:12:47;16.40;99.90
13808;DHT22;40769;51.512;5.494;2022-11-15T15:15:23;16.30;99.90
13808;DHT22;40769;51.512;5.494;2022-11-15T15:17:49;16.10;99.90
13808;DHT22;40769;51.512;5.494;2022-11-15T15:20:15;16.20;99.90
13808;DHT22;40769;51.512;5.494;2022-11-15T15:22:41;16.20;99.90
13808;DHT22;40769;51.512;5.494;2022-11-15T15:27:47;16.20;99.90
13808;DHT22;40769;51.512;5.494;2022-11-15T15:30:13;16.40;99.90
13808;DHT22;40769;51.512;5.494;2022-11-15T15:32:38;16.10;99.90
13808;DHT22;40769;51.512;5.494;2022-11-15T15:35:04;16.10;99.90
13808;DHT22;40769;51.512;5.494;2022-11-15T15:37:31;16.00;99.90
13808;DHT22;40769;51.512;5.494;2022-11-15T15:39:59;16.10;99.90
13808;DHT22;40769;51.512;5.494;2022-11-15T15:42:24;16.00;99.90
13808;DHT22;40769;51.512;5.494;2022-11-15T15:44:50;16.10;99.90
13808;DHT22;40769;51.512;5.494;2022-11-15T15:47:19;16.10;99.90
13808;DHT22;40769;51.512;5.494;2022-11-15T15:49:45;16.10;99.90
13808;DHT22;40769;51.512;5.494;2022-11-15T15:52:11;16.20;99.90
13808;DHT22;40769;51.512;5.494;2022-11-15T15:54:37;16.20;99.90
13808;DHT22;40769;51.512;5.494;2022-11-15T15:57:03;16.10;99.90
13808;DHT22;40769;51.512;5.494;2022-11-15T15:59:30;16.00;99.90
13808;DHT22;40769;51.512;5.494;2022-11-15T16:01:56;15.90;99.90
13808;DHT22;40769;51.512;5.494;2022-11-15T16:04:22;15.80;99.90
13808;DHT22;40769;51.512;5.494;2022-11-15T16:06:47;15.80;99.90
13808;DHT22;40769;51.512;5.494;2022-11-15T16:09:16;15.80;99.90
13808;DHT22;40769;51.512;5.494;2022-11-15T16:11:44;15.80;99.90
13808;DHT22;40769;51.512;5.494;2022-11-15T16:14:10;15.90;99.90
13808;DHT22;40769;51.512;5.494;2022-11-15T16:16:36;15.90;99.90
13808;DHT22;40769;51.512;5.494;2022-11-15T16:19:03;16.10;99.90
13808;DHT22;40769;51.512;5.494;2022-11-15T16:21:29;16.00;99.90
13808;DHT22;40769;51.512;5.494;2022-11-15T16:23:55;16.00;99.90
13808;DHT22;40769;51.512;5.494;2022-11-15T16:26:23;15.90;99.90
13808;DHT22;40769;51.512;5.494;2022-11-15T16:28:50;15.80;99.90
13808;DHT22;40769;51.512;5.494;2022-11-15T16:31:16;15.90;99.90
13808;DHT22;40769;51.512;5.494;2022-11-15T16:33:44;15.60;99.90
13808;DHT22;40769;51.512;5.494;2022-11-15T16:38:43;15.50;99.90
13808;DHT22;40769;51.512;5.494;2022-11-15T16:41:09;15.40;99.90
13808;DHT22;40769;51.512;5.494;2022-11-15T16:43:34;15.40;99.90
13808;DHT22;40769;51.512;5.494;2022-11-15T16:46:07;15.30;99.90
13808;DHT22;40769;51.512;5.494;2022-11-15T16:48:34;15.20;99.90
13808;DHT22;40769;51.512;5.494;2022-11-15T16:50:59;15.20;99.90
13808;DHT22;40769;51.512;5.494;2022-11-15T16:53:26;15.10;99.90
13808;DHT22;40769;51.512;5.494;2022-11-15T16:55:52;15.00;99.90
13808;DHT22;40769;51.512;5.494;2022-11-15T16:58:19;14.90;99.90
13808;DHT22;40769;51.512;5.494;2022-11-15T17:00:44;15.20;99.90
13808;DHT22;40769;51.512;5.494;2022-11-15T17:03:10;15.80;99.90
13808;DHT22;40769;51.512;5.494;2022-11-15T17:05:36;14.70;99.90
13808;DHT22;40769;51.512;5.494;2022-11-15T17:08:01;14.60;99.90
13808;DHT22;40769;51.512;5.494;2022-11-15T17:10:27;14.60;99.90
13808;DHT22;40769;51.512;5.494;2022-11-15T17:12:54;14.50;99.90
13808;DHT22;40769;51.512;5.494;2022-11-15T17:15:20;14.40;99.90
13808;DHT22;40769;51.512;5.494;2022-11-15T17:17:55;14.30;99.90
13808;DHT22;40769;51.512;5.494;2022-11-15T17:20:23;14.20;99.90
13808;DHT22;40769;51.512;5.494;2022-11-15T17:22:49;14.40;99.90
13808;DHT22;40769;51.512;5.494;2022-11-15T17:25:18;14.40;99.90
13808;DHT22;40769;51.512;5.494;2022-11-15T17:27:43;14.10;99.90
13808;DHT22;40769;51.512;5.494;2022-11-15T17:30:11;14.10;99.90
13808;DHT22;40769;51.512;5.494;2022-11-15T17:32:37;14.00;99.90
13808;DHT22;40769;51.512;5.494;2022-11-15T17:35:04;14.00;99.90
13808;DHT22;40769;51.512;5.494;2022-11-15T17:37:31;13.80;99.90
13808;DHT22;40769;51.512;5.494;2022-11-15T17:39:57;13.80;99.90
13808;DHT22;40769;51.512;5.494;2022-11-15T17:42:23;13.80;99.90